createdAt,value
2022-08-22T00:02:53.248Z,22.50
2022-08-22T00:02:59.810Z,21.80
2022-08-22T00:03:17.601Z,19.20
2022-08-22T00:06:15.303Z,19.20
2022-08-22T00:09:13.884Z,19.20
2022-08-22T00:12:16.088Z,19.10
2022-08-22T00:15:12.734Z,19.10
2022-08-22T00:18:24.140Z,19.00
2022-08-22T00:21:18.435Z,19.00
2022-08-22T00:24:19.919Z,19.00
2022-08-22T00:27:12.091Z,19.00
2022-08-22T00:30:08.769Z,19.00
2022-08-22T00:33:03.645Z,19.00
2022-08-22T00:36:02.019Z,19.00
2022-08-22T00:39:00.156Z,19.00
2022-08-22T00:42:31.759Z,19.00
2022-08-22T00:45:44.859Z,18.90
2022-08-22T00:48:56.935Z,18.90
2022-08-22T00:52:16.411Z,18.80
2022-08-22T00:55:40.996Z,18.70
2022-08-22T00:59:23.093Z,18.70
2022-08-22T01:02:29.331Z,18.70
2022-08-22T01:05:47.194Z,19.00
2022-08-22T01:08:47.504Z,18.90
2022-08-22T01:12:17.926Z,18.70
2022-08-22T01:15:12.730Z,18.80
2022-08-22T01:18:18.160Z,18.60
2022-08-22T01:21:40.689Z,18.50
2022-08-22T01:25:18.399Z,18.40
2022-08-22T01:28:35.592Z,18.30
2022-08-22T01:31:57.568Z,18.20
2022-08-22T01:35:19.897Z,18.20
2022-08-22T01:38:43.639Z,18.20
2022-08-22T01:41:54.235Z,18.20
2022-08-22T01:45:03.220Z,18.20
2022-08-22T01:47:55.959Z,18.20
2022-08-22T01:50:49.449Z,18.10
2022-08-22T01:53:45.745Z,18.10
2022-08-22T01:56:37.133Z,18.10
2022-08-22T01:59:34.084Z,17.80
2022-08-22T02:02:36.156Z,18.10
2022-08-22T02:05:31.806Z,18.10
2022-08-22T02:08:40.650Z,18.10
2022-08-22T02:11:40.884Z,18.10
2022-08-22T02:14:45.933Z,18.10
2022-08-22T02:17:36.048Z,18.10
2022-08-22T02:20:27.102Z,18.00
2022-08-22T02:23:25.270Z,18.00
2022-08-22T02:26:18.098Z,18.00
2022-08-22T02:29:10.802Z,18.00
2022-08-22T02:32:07.730Z,17.90
2022-08-22T02:35:03.788Z,17.90
2022-08-22T02:38:00.693Z,17.90
2022-08-22T02:41:08.691Z,17.90
2022-08-22T02:44:02.232Z,17.90
2022-08-22T02:46:55.636Z,17.80
2022-08-22T02:49:55.807Z,17.80
2022-08-22T02:53:04.360Z,17.70
2022-08-22T02:56:05.511Z,17.60
2022-08-22T02:59:00.202Z,17.60
2022-08-22T03:01:50.137Z,17.80
2022-08-22T03:04:55.039Z,17.70
2022-08-22T03:07:50.265Z,17.60
2022-08-22T03:10:48.923Z,17.60
2022-08-22T03:14:08.394Z,17.50
2022-08-22T03:17:03.361Z,17.40
2022-08-22T03:23:25.220Z,17.30
2022-08-22T03:26:18.150Z,17.40
2022-08-22T03:29:17.562Z,17.30
2022-08-22T03:32:14.478Z,17.30
2022-08-22T03:35:22.985Z,17.30
2022-08-22T03:38:18.123Z,17.30
2022-08-22T03:41:28.085Z,17.40
2022-08-22T03:44:52.076Z,17.30
2022-08-22T03:48:07.590Z,17.40
2022-08-22T03:51:21.435Z,17.30
2022-08-22T03:54:31.475Z,17.60
2022-08-22T03:58:17.179Z,17.40
2022-08-22T04:01:57.667Z,17.30
2022-08-22T04:05:16.215Z,17.20
2022-08-22T04:08:35.251Z,17.10
2022-08-22T04:11:53.613Z,17.10
2022-08-22T04:15:09.682Z,17.10
2022-08-22T04:18:36.509Z,17.00
2022-08-22T04:21:50.687Z,16.90
2022-08-22T04:24:52.146Z,16.90
2022-08-22T04:27:48.119Z,16.90
2022-08-22T04:30:42.009Z,16.80
2022-08-22T04:33:36.091Z,16.80
2022-08-22T04:36:29.120Z,16.80
2022-08-22T04:39:22.721Z,16.70
2022-08-22T04:42:32.288Z,16.70
2022-08-22T04:45:24.894Z,16.60
2022-08-22T04:48:20.835Z,16.50
2022-08-22T04:51:25.092Z,16.50
2022-08-22T04:54:27.010Z,16.50
2022-08-22T04:57:26.033Z,16.40
2022-08-22T05:00:16.206Z,16.30
2022-08-22T05:03:09.399Z,16.20
2022-08-22T05:06:00.114Z,16.20
2022-08-22T05:08:54.055Z,16.20
2022-08-22T05:11:43.151Z,16.30
2022-08-22T05:14:38.996Z,16.30
2022-08-22T05:17:30.297Z,16.40
2022-08-22T05:20:22.089Z,16.40
2022-08-22T05:23:17.160Z,16.50
2022-08-22T05:26:08.581Z,16.50
2022-08-22T05:29:02.731Z,16.60
2022-08-22T05:31:59.014Z,16.60
2022-08-22T05:34:51.468Z,16.70
2022-08-22T05:37:44.358Z,16.70
2022-08-22T05:40:34.152Z,16.80
2022-08-22T05:43:28.127Z,16.90
2022-08-22T05:46:27.108Z,16.90
2022-08-22T05:49:20.744Z,17.00
2022-08-22T05:52:16.960Z,17.10
2022-08-22T05:55:12.411Z,17.10
2022-08-22T05:58:42.307Z,17.20
2022-08-22T06:01:36.421Z,17.20
2022-08-22T06:04:33.566Z,17.20
2022-08-22T06:07:26.902Z,17.30
2022-08-22T06:10:23.451Z,17.30
2022-08-22T06:13:15.111Z,17.40
2022-08-22T06:16:11.634Z,17.40
2022-08-22T06:19:00.159Z,17.50
2022-08-22T06:21:50.889Z,17.60
2022-08-22T06:24:41.658Z,17.60
2022-08-22T06:27:31.245Z,17.70
2022-08-22T06:30:20.868Z,17.80
2022-08-22T06:33:13.431Z,17.90
2022-08-22T06:36:23.352Z,17.90
2022-08-22T06:39:18.471Z,18.00
2022-08-22T06:42:15.860Z,18.20
2022-08-22T06:45:09.671Z,18.30
2022-08-22T06:48:16.925Z,18.40
2022-08-22T06:51:08.262Z,18.50
2022-08-22T06:54:00.210Z,18.90
2022-08-22T06:56:51.822Z,18.90
2022-08-22T06:59:40.417Z,18.90
2022-08-22T07:02:34.380Z,19.00
2022-08-22T07:05:28.129Z,19.00
2022-08-22T07:08:21.124Z,19.10
2022-08-22T07:11:14.789Z,19.30
2022-08-22T07:14:05.771Z,19.30
2022-08-22T07:16:59.138Z,19.40
2022-08-22T07:19:54.983Z,19.60
2022-08-22T07:22:54.273Z,19.60
2022-08-22T07:25:52.296Z,19.70
2022-08-22T07:28:51.469Z,19.80
2022-08-22T07:31:52.328Z,19.90
2022-08-22T07:34:56.720Z,20.00
2022-08-22T07:38:00.112Z,20.30
2022-08-22T07:40:56.555Z,20.30
2022-08-22T07:43:49.048Z,20.30
2022-08-22T07:46:41.392Z,20.40
2022-08-22T07:49:33.369Z,20.50
2022-08-22T07:52:22.392Z,20.60
2022-08-22T07:55:18.647Z,20.70
2022-08-22T07:58:08.855Z,20.80
2022-08-22T08:00:58.090Z,20.90
2022-08-22T08:03:54.833Z,21.00
2022-08-22T08:06:42.933Z,21.10
2022-08-22T08:09:35.917Z,21.20
2022-08-22T08:12:31.138Z,21.20
2022-08-22T08:15:22.039Z,21.30
2022-08-22T08:18:13.320Z,21.40
2022-08-22T08:21:04.656Z,21.50
2022-08-22T08:23:53.756Z,21.60
2022-08-22T08:27:06.271Z,21.60
2022-08-22T08:29:58.938Z,21.70
2022-08-22T08:32:59.581Z,21.80
2022-08-22T08:36:11.240Z,21.90
2022-08-22T08:39:10.193Z,22.00
2022-08-22T08:42:59.948Z,22.10
2022-08-22T08:46:25.537Z,22.30
2022-08-22T08:49:47.320Z,22.40
2022-08-22T08:53:08.976Z,22.50
2022-08-22T08:56:04.901Z,22.60
2022-08-22T08:59:02.190Z,22.70
2022-08-22T09:02:20.380Z,22.80
2022-08-22T09:05:41.621Z,22.90
2022-08-22T09:08:56.134Z,23.00
2022-08-22T09:12:20.796Z,23.10
2022-08-22T09:15:19.912Z,23.20
2022-08-22T09:18:47.396Z,23.30
2022-08-22T09:25:38.483Z,23.60
2022-08-22T09:28:35.163Z,23.70
2022-08-22T09:31:48.079Z,23.80
2022-08-22T09:34:56.602Z,23.90
2022-08-22T09:38:00.331Z,23.90
2022-08-22T09:40:54.455Z,24.40
2022-08-22T09:43:48.909Z,24.40
2022-08-22T09:46:54.573Z,24.30
2022-08-22T09:50:03.198Z,24.40
2022-08-22T09:53:03.068Z,24.50
2022-08-22T09:55:56.774Z,24.60
2022-08-22T09:58:57.778Z,24.60
2022-08-22T10:01:52.696Z,24.70
2022-08-22T10:04:46.122Z,24.80
2022-08-22T10:07:53.992Z,24.80
2022-08-22T10:10:55.756Z,24.90
2022-08-22T10:13:57.523Z,25.10
2022-08-22T10:17:00.383Z,25.20
2022-08-22T10:19:53.865Z,25.30
2022-08-22T10:22:47.248Z,25.30
2022-08-22T10:25:41.791Z,25.50
2022-08-22T10:28:39.883Z,25.60
2022-08-22T10:31:35.623Z,26.00
2022-08-22T10:34:49.560Z,26.00
2022-08-22T10:37:46.198Z,26.10
2022-08-22T10:40:40.701Z,26.20
2022-08-22T10:43:44.580Z,26.30
2022-08-22T10:46:39.574Z,26.40
2022-08-22T10:49:35.294Z,26.60
2022-08-22T10:52:26.580Z,26.60
2022-08-22T10:55:18.881Z,26.70
2022-08-22T10:58:13.173Z,26.80
2022-08-22T11:01:38.253Z,26.90
2022-08-22T11:04:28.272Z,26.90
2022-08-22T11:07:46.720Z,27.10
2022-08-22T11:10:52.253Z,27.20
2022-08-22T11:13:47.964Z,27.30
2022-08-22T11:16:55.109Z,27.30
2022-08-22T11:20:03.190Z,27.70
2022-08-22T11:23:16.386Z,27.70
2022-08-22T11:26:14.857Z,27.80
2022-08-22T11:29:32.861Z,27.80
2022-08-22T11:32:33.665Z,27.90
2022-08-22T11:35:24.215Z,28.00
2022-08-22T11:38:25.867Z,28.00
2022-08-22T11:41:26.111Z,28.00
2022-08-22T11:44:20.176Z,27.90
2022-08-22T11:47:14.517Z,27.90
2022-08-22T11:50:13.540Z,27.80
2022-08-22T11:53:18.090Z,27.70
2022-08-22T11:56:17.872Z,27.70
2022-08-22T11:59:26.903Z,27.80
2022-08-22T12:02:22.849Z,27.90
2022-08-22T12:05:19.683Z,28.30
2022-08-22T12:08:21.335Z,28.30
2022-08-22T12:11:13.529Z,28.40
2022-08-22T12:14:06.835Z,28.50
2022-08-22T12:17:26.284Z,28.60
2022-08-22T12:20:52.246Z,28.60
2022-08-22T12:24:06.228Z,28.70
2022-08-22T12:27:28.518Z,28.80
2022-08-22T12:30:23.166Z,28.80
2022-08-22T12:33:37.383Z,28.80
2022-08-22T12:36:48.477Z,28.60
2022-08-22T12:39:55.775Z,28.90
2022-08-22T12:43:09.967Z,28.70
2022-08-22T12:46:16.217Z,28.50
2022-08-22T12:49:19.185Z,28.50
2022-08-22T12:52:24.986Z,28.50
2022-08-22T12:55:34.174Z,28.60
2022-08-22T12:58:35.453Z,28.70
2022-08-22T13:01:34.109Z,28.70
2022-08-22T13:04:32.450Z,28.90
2022-08-22T13:07:28.680Z,28.90
2022-08-22T13:10:38.202Z,29.00
2022-08-22T13:13:31.611Z,29.10
2022-08-22T13:16:27.269Z,29.20
2022-08-22T13:19:21.398Z,29.30
2022-08-22T13:22:14.399Z,29.60
2022-08-22T13:25:06.492Z,29.60
2022-08-22T13:28:03.387Z,29.60
2022-08-22T13:30:54.960Z,29.70
2022-08-22T13:33:47.871Z,29.90
2022-08-22T13:36:51.696Z,29.70
2022-08-22T13:39:44.803Z,29.60
2022-08-22T13:42:40.283Z,29.50
2022-08-22T13:45:30.297Z,29.40
2022-08-22T13:48:23.666Z,29.30
2022-08-22T13:51:23.623Z,29.30
2022-08-22T13:54:38.925Z,29.30
2022-08-22T13:57:32.286Z,29.40
2022-08-22T14:01:08.845Z,29.60
2022-08-22T14:04:00.027Z,29.70
2022-08-22T14:06:52.799Z,30.20
2022-08-22T14:09:51.301Z,30.10
2022-08-22T14:12:51.109Z,30.20
2022-08-22T14:15:46.132Z,30.20
2022-08-22T14:18:45.578Z,30.30
2022-08-22T14:21:41.576Z,30.30
2022-08-22T14:24:33.554Z,30.20
2022-08-22T14:27:36.790Z,30.20
2022-08-22T14:30:32.247Z,30.20
2022-08-22T14:33:23.239Z,30.10
2022-08-22T14:36:17.235Z,30.10
2022-08-22T14:39:11.853Z,30.10
2022-08-22T14:42:10.047Z,30.00
2022-08-22T14:45:06.672Z,30.00
2022-08-22T14:48:29.287Z,30.20
2022-08-22T14:51:10.086Z,30.10
2022-08-22T14:54:21.444Z,30.00
2022-08-22T14:57:18.499Z,30.00
2022-08-22T15:00:12.103Z,30.30
2022-08-22T15:03:13.492Z,30.10
2022-08-22T15:06:04.216Z,30.00
2022-08-22T15:08:53.044Z,29.90
2022-08-22T15:11:49.378Z,29.90
2022-08-22T15:14:48.973Z,29.90
2022-08-22T15:17:45.191Z,29.80
2022-08-22T15:20:38.260Z,29.70
2022-08-22T15:23:34.132Z,29.70
2022-08-22T15:26:39.265Z,29.70
2022-08-22T15:29:36.477Z,30.00
2022-08-22T15:32:29.333Z,29.90
2022-08-22T15:35:33.487Z,29.90
2022-08-22T15:38:29.402Z,29.90
2022-08-22T15:41:46.002Z,29.90
2022-08-22T15:44:38.914Z,29.80
2022-08-22T15:47:36.246Z,29.70
2022-08-22T15:50:35.574Z,29.70
2022-08-22T15:53:27.404Z,29.60
2022-08-22T15:56:27.005Z,29.50
2022-08-22T15:59:47.716Z,29.40
2022-08-22T16:02:42.552Z,29.40
2022-08-22T16:05:43.602Z,29.30
2022-08-22T16:08:47.042Z,29.20
2022-08-22T16:11:39.226Z,29.10
2022-08-22T16:14:46.909Z,29.10
2022-08-22T16:17:53.364Z,28.90
2022-08-22T16:20:54.130Z,29.00
2022-08-22T16:24:21.487Z,28.90
2022-08-22T16:27:21.627Z,28.70
2022-08-22T16:30:15.084Z,28.60
2022-08-22T16:33:06.820Z,28.50
2022-08-22T16:36:42.616Z,28.60
2022-08-22T16:39:39.807Z,28.30
2022-08-22T16:42:35.535Z,28.30
2022-08-22T16:45:35.559Z,28.10
2022-08-22T16:48:33.355Z,28.10
2022-08-22T16:51:22.295Z,27.90
2022-08-22T16:54:13.429Z,27.80
2022-08-22T16:57:14.816Z,27.70
2022-08-22T17:00:11.652Z,27.80
2022-08-22T17:03:10.586Z,27.60
2022-08-22T17:06:07.414Z,27.60
2022-08-22T17:09:06.555Z,27.40
2022-08-22T17:12:03.402Z,27.40
2022-08-22T17:14:59.770Z,27.30
2022-08-22T17:18:12.173Z,27.20
2022-08-22T17:21:09.908Z,27.10
2022-08-22T17:24:04.531Z,27.00
2022-08-22T17:26:58.917Z,26.90
2022-08-22T17:30:02.069Z,26.90
2022-08-22T17:33:10.288Z,26.90
2022-08-22T17:36:26.241Z,26.90
2022-08-22T17:39:29.684Z,26.70
2022-08-22T17:42:47.010Z,26.60
2022-08-22T17:45:50.125Z,26.60
2022-08-22T17:48:45.929Z,26.50
2022-08-22T17:51:41.368Z,26.40
2022-08-22T17:54:37.968Z,26.40
2022-08-22T17:57:30.572Z,26.30
2022-08-22T18:00:25.576Z,26.30
2022-08-22T18:03:26.019Z,26.20
2022-08-22T18:06:20.763Z,26.20
2022-08-22T18:09:24.152Z,26.20
2022-08-22T18:12:18.443Z,26.30
2022-08-22T18:15:10.238Z,26.20
2022-08-22T18:18:03.392Z,26.20
2022-08-22T18:20:56.911Z,26.20
2022-08-22T18:23:49.531Z,26.10
2022-08-22T18:26:49.663Z,26.00
2022-08-22T18:29:46.392Z,26.00
2022-08-22T18:32:39.639Z,25.90
2022-08-22T18:35:34.832Z,25.80
2022-08-22T18:38:32.269Z,25.70
2022-08-22T18:41:31.509Z,25.60
2022-08-22T18:44:24.802Z,25.60
2022-08-22T18:47:17.500Z,25.50
2022-08-22T18:50:30.646Z,25.40
2022-08-22T18:53:37.526Z,25.40
2022-08-22T18:56:50.761Z,25.40
2022-08-22T18:59:54.186Z,25.40
2022-08-22T19:03:10.312Z,25.40
2022-08-22T19:06:37.786Z,25.50
2022-08-22T19:09:45.094Z,25.40
2022-08-22T19:12:55.232Z,25.40
2022-08-22T19:15:58.322Z,25.40
2022-08-22T19:18:54.667Z,25.40
2022-08-22T19:22:22.655Z,25.30
2022-08-22T19:25:20.845Z,25.30
2022-08-22T19:28:26.909Z,25.30
2022-08-22T19:31:25.889Z,25.30
2022-08-22T19:34:19.282Z,25.20
2022-08-22T19:37:32.255Z,25.20
2022-08-22T19:40:53.172Z,25.20
2022-08-22T19:43:42.118Z,25.10
2022-08-22T19:46:39.407Z,25.10
2022-08-22T19:49:30.350Z,25.10
2022-08-22T19:52:29.744Z,25.00
2022-08-22T19:55:26.010Z,25.00
2022-08-22T19:58:31.729Z,25.10
2022-08-22T20:04:49.730Z,24.90
2022-08-22T20:07:57.523Z,24.80
2022-08-22T20:10:58.593Z,24.80
2022-08-22T20:13:47.042Z,24.70
2022-08-22T20:16:59.466Z,24.70
2022-08-22T20:23:07.131Z,24.60
2022-08-22T20:25:57.011Z,24.50
2022-08-22T20:28:48.747Z,24.70
2022-08-22T20:31:38.010Z,24.50
2022-08-22T20:34:29.074Z,24.50
2022-08-22T20:41:00.567Z,24.40
2022-08-22T20:43:54.443Z,24.30
2022-08-22T20:46:55.949Z,24.30
2022-08-22T20:49:47.741Z,24.30
2022-08-22T20:52:41.610Z,24.30
2022-08-22T20:59:36.050Z,24.20
2022-08-22T21:02:32.781Z,24.50
2022-08-22T21:05:33.531Z,24.40
2022-08-22T21:08:40.343Z,24.40
2022-08-22T21:11:40.515Z,24.40
2022-08-22T21:14:34.008Z,24.30
2022-08-22T21:17:26.652Z,24.30
2022-08-22T21:20:22.166Z,24.30
2022-08-22T21:23:14.396Z,24.30
2022-08-22T21:26:07.591Z,24.20
2022-08-22T21:28:59.912Z,24.20
2022-08-22T21:31:50.151Z,24.20
2022-08-22T21:34:42.996Z,24.20
2022-08-22T21:37:38.398Z,24.10
2022-08-22T21:40:33.381Z,24.10
2022-08-22T21:43:36.844Z,24.10
2022-08-22T21:46:28.552Z,24.00
2022-08-22T21:49:24.761Z,24.00
2022-08-22T21:52:12.992Z,24.00
2022-08-22T21:55:15.931Z,24.00
2022-08-22T21:58:12.087Z,24.00
2022-08-22T22:01:24.892Z,23.90
2022-08-22T22:04:15.392Z,23.90
2022-08-22T22:07:03.379Z,23.90
2022-08-22T22:09:54.386Z,23.80
2022-08-22T22:12:44.823Z,23.80
2022-08-22T22:15:38.107Z,23.80
2022-08-22T22:18:32.508Z,23.70
2022-08-22T22:21:26.078Z,23.70
2022-08-22T22:24:15.929Z,23.70
2022-08-22T22:27:04.628Z,23.60
2022-08-22T22:29:52.567Z,23.80
2022-08-22T22:32:40.517Z,23.80
2022-08-22T22:35:32.234Z,23.70
2022-08-22T22:38:23.872Z,23.60
2022-08-22T22:41:12.542Z,23.60
2022-08-22T22:44:05.279Z,23.50
2022-08-22T22:46:57.665Z,23.60
2022-08-22T22:49:46.117Z,23.50
2022-08-22T22:52:40.671Z,23.40
2022-08-22T22:55:29.005Z,23.40
2022-08-22T22:58:19.615Z,23.30
2022-08-22T23:01:09.661Z,23.30
2022-08-22T23:04:05.410Z,23.30
2022-08-22T23:06:55.627Z,23.30
2022-08-22T23:09:45.368Z,23.20
2022-08-22T23:12:34.129Z,23.20
2022-08-22T23:15:22.373Z,23.20
2022-08-22T23:18:10.310Z,23.20
2022-08-22T23:20:58.194Z,23.10
2022-08-22T23:23:47.219Z,23.20
2022-08-22T23:26:36.925Z,23.10
2022-08-22T23:29:25.134Z,23.10
2022-08-22T23:32:14.630Z,23.30
2022-08-22T23:35:02.851Z,22.90
2022-08-22T23:37:50.888Z,22.90
2022-08-22T23:40:38.841Z,22.80
2022-08-22T23:43:28.094Z,22.80
2022-08-22T23:46:17.436Z,22.80
2022-08-22T23:49:06.442Z,22.80
2022-08-22T23:51:54.713Z,23.00
2022-08-22T23:54:42.570Z,22.80
2022-08-22T23:57:30.487Z,22.70
